Time;durP1;ratioP1;P1;durP2;ratioP2;P2;SDS_P1;SDS_P2;PMS_P1;PMS_P2;Temp;Humidity;BMP_temperature;BMP_pressure;BME280_temperature;BME280_humidity;BME280_pressure;Samples;Min_cycle;Max_cycle;Signal;HPM_P1;HPM_P2
2023/08/11 00:00:36;;;;;;;4.70;3.13;;;;;;;16.57;93.53;101571.09;5015988;28;20038;-62
2023/08/11 00:03:06;;;;;;;4.25;3.38;;;;;;;16.53;93.32;101567.72;5010088;28;20030;-62
2023/08/11 00:05:38;;;;;;;11.07;3.80;;;;;;;16.50;93.58;101580.84;5015411;28;20714;-62
2023/08/11 00:08:05;;;;;;;6.32;3.38;;;;;;;16.49;93.75;101578.25;5008275;28;20080;-62
2023/08/11 00:10:31;;;;;;;5.05;3.38;;;;;;;16.46;93.89;101581.78;5015674;28;20052;-62
2023/08/11 00:12:56;;;;;;;8.15;3.40;;;;;;;16.44;94.21;101580.09;5008148;28;20072;-62
2023/08/11 00:15:22;;;;;;;5.97;3.70;;;;;;;16.41;94.30;101577.53;5003724;28;20045;-62
2023/08/11 00:17:47;;;;;;;6.13;3.17;;;;;;;16.36;94.58;101577.63;5009644;28;20025;-63
2023/08/11 00:20:13;;;;;;;5.30;3.20;;;;;;;16.33;94.49;101577.66;5012420;28;20675;-62
2023/08/11 00:22:38;;;;;;;5.85;3.03;;;;;;;16.32;94.56;101581.19;5013580;28;20041;-62
2023/08/11 00:25:04;;;;;;;8.77;4.15;;;;;;;16.28;95.02;101577.78;4999960;28;20074;-62
2023/08/11 00:27:30;;;;;;;8.05;4.10;;;;;;;16.26;95.24;101574.34;5018087;28;20033;-62
2023/08/11 00:29:58;;;;;;;12.88;4.13;;;;;;;16.24;95.27;101573.50;5017196;28;20036;-62
2023/08/11 00:32:23;;;;;;;7.55;4.70;;;;;;;16.19;95.78;101575.34;5010503;28;20029;-62
2023/08/11 00:34:49;;;;;;;7.53;4.18;;;;;;;16.17;96.04;101571.91;5010797;28;20038;-62
2023/08/11 00:37:14;;;;;;;8.98;4.93;;;;;;;16.16;95.55;101561.47;5013490;28;20045;-62
2023/08/11 00:39:39;;;;;;;7.72;3.85;;;;;;;16.17;95.64;101563.22;5015736;28;20065;-62
2023/08/11 00:42:05;;;;;;;9.60;5.13;;;;;;;16.15;95.92;101557.13;5017737;28;20076;-62
2023/08/11 00:44:31;;;;;;;7.93;4.90;;;;;;;16.14;96.08;101563.28;5015931;28;20116;-62
2023/08/11 00:46:57;;;;;;;10.88;4.90;;;;;;;16.15;95.34;101562.34;5016332;28;20045;-62
2023/08/11 00:49:23;;;;;;;11.40;4.22;;;;;;;16.11;95.94;101558.09;5017180;28;20048;-62
2023/08/11 00:51:48;;;;;;;9.88;4.07;;;;;;;16.06;96.02;101560.78;5019960;28;20500;-62
2023/08/11 00:54:15;;;;;;;5.10;4.05;;;;;;;16.02;96.21;101560.88;5016012;28;20045;-62
2023/08/11 00:56:44;;;;;;;7.30;3.95;;;;;;;15.95;96.73;101559.25;5010266;28;20036;-63
2023/08/11 00:59:11;;;;;;;7.95;4.88;;;;;;;15.89;96.79;101557.63;5020991;28;20452;-62
2023/08/11 01:01:37;;;;;;;8.27;4.57;;;;;;;15.89;97.04;101565.44;5013681;28;20046;-62
2023/08/11 01:04:04;;;;;;;9.50;4.65;;;;;;;15.86;97.19;101560.28;5013011;28;20112;-62
2023/08/11 01:06:39;;;;;;;9.48;4.20;;;;;;;15.86;97.48;101556.81;5014235;28;20791;-62
2023/08/11 01:09:28;;;;;;;8.63;4.13;;;;;;;15.85;97.57;101555.94;5015245;28;20106;-62
2023/08/11 01:12:05;;;;;;;5.82;4.00;;;;;;;15.83;97.55;101555.13;5005834;28;20014;-62
2023/08/11 01:14:47;;;;;;;7.88;4.82;;;;;;;15.83;97.80;101560.34;5011565;28;20060;-62
2023/08/11 01:17:14;;;;;;;7.03;4.40;;;;;;;15.82;98.29;101555.16;5014000;28;20080;-62
2023/08/11 01:19:40;;;;;;;9.15;4.93;;;;;;;15.81;97.83;101550.81;5013192;28;20041;-62
2023/08/11 01:22:13;;;;;;;7.97;4.63;;;;;;;15.80;97.77;101546.50;5013168;28;20130;-62
2023/08/11 01:24:39;;;;;;;8.95;5.05;;;;;;;15.77;97.90;101547.41;5017286;28;20042;-62
2023/08/11 01:27:05;;;;;;;9.95;5.50;;;;;;;15.76;97.73;101543.94;5012445;28;20158;-62
2023/08/11 01:29:30;;;;;;;10.55;5.13;;;;;;;15.76;97.94;101533.50;5015010;28;20096;-62
2023/08/11 01:31:56;;;;;;;10.63;6.13;;;;;;;15.75;97.53;101533.53;5014618;28;20045;-62
2023/08/11 01:34:22;;;;;;;7.95;5.40;;;;;;;15.73;97.13;101540.53;5020505;28;20565;-63
2023/08/11 01:36:50;;;;;;;8.45;4.60;;;;;;;15.71;97.36;101534.47;5014240;28;20084;-62
2023/08/11 01:39:16;;;;;;;9.32;5.68;;;;;;;15.69;97.44;101536.25;5012749;28;20044;-62
2023/08/11 01:41:41;;;;;;;9.13;5.65;;;;;;;15.66;97.66;101529.34;5016342;28;20053;-62
2023/08/11 01:44:07;;;;;;;8.73;5.03;;;;;;;15.66;97.44;101531.09;5011214;28;20044;-62
2023/08/11 01:46:33;;;;;;;7.55;5.30;;;;;;;15.65;97.26;101525.03;5016521;28;20041;-62
2023/08/11 01:49:00;;;;;;;8.57;5.70;;;;;;;15.66;97.07;101526.75;5016010;28;20511;-62
2023/08/11 01:51:26;;;;;;;10.95;5.85;;;;;;;15.66;96.98;101524.16;4993881;28;20037;-62
2023/08/11 01:53:52;;;;;;;7.93;5.32;;;;;;;15.64;96.90;101515.47;5011354;28;20042;-62
2023/08/11 01:56:19;;;;;;;14.13;5.82;;;;;;;15.61;97.34;101514.66;5015607;28;20032;-63
2023/08/11 01:58:45;;;;;;;9.95;5.63;;;;;;;15.58;97.17;101510.31;5013204;28;20092;-62
2023/08/11 02:01:13;;;;;;;8.20;5.40;;;;;;;15.55;97.23;101510.38;5013623;28;20045;-62
2023/08/11 02:03:38;;;;;;;11.20;5.80;;;;;;;15.53;97.31;101514.78;5024699;28;20037;-62
2023/08/11 02:06:04;;;;;;;11.45;5.43;;;;;;;15.51;97.37;101510.47;5022232;28;20524;-62
2023/08/11 02:08:29;;;;;;;8.38;5.03;;;;;;;15.49;97.67;101507.91;5020316;28;20029;-62
2023/08/11 02:10:55;;;;;;;7.90;4.80;;;;;;;15.46;97.98;101505.34;5016394;28;20042;-62
2023/08/11 02:13:20;;;;;;;8.85;5.38;;;;;;;15.43;97.95;101507.13;5015915;28;20431;-62
2023/08/11 02:15:45;;;;;;;11.60;5.80;;;;;;;15.41;98.44;101504.53;5012986;28;20060;-62
2023/08/11 02:18:11;;;;;;;11.27;5.65;;;;;;;15.42;98.44;101506.28;5013640;28;20047;-62
2023/08/11 02:20:36;;;;;;;8.65;5.22;;;;;;;15.40;98.16;101510.66;4997700;28;20080;-62
2023/08/11 02:23:02;;;;;;;9.43;5.63;;;;;;;15.38;98.16;101501.13;5022560;28;20045;-62
2023/08/11 02:25:27;;;;;;;8.43;5.15;;;;;;;15.37;97.90;101510.72;5016831;28;20041;-62
2023/08/11 02:27:52;;;;;;;8.07;5.18;;;;;;;15.35;98.22;101514.19;5017444;28;20036;-62
2023/08/11 02:30:18;;;;;;;6.82;4.57;;;;;;;15.34;98.06;101505.56;5014625;28;20200;-62
2023/08/11 02:32:46;;;;;;;11.00;5.55;;;;;;;15.34;98.19;101507.28;4998644;28;20128;-62
2023/08/11 02:35:12;;;;;;;8.80;5.32;;;;;;;15.33;98.40;101501.22;5014721;28;20052;-62
2023/08/11 02:37:39;;;;;;;8.80;4.90;;;;;;;15.32;98.06;101509.91;5018964;28;20068;-62
2023/08/11 02:40:09;;;;;;;8.40;4.22;;;;;;;15.31;98.57;101503.00;5018591;28;20100;-62
2023/08/11 02:42:37;;;;;;;9.77;4.18;;;;;;;15.30;98.06;101503.88;5017036;28;20037;-62
2023/08/11 02:45:04;;;;;;;8.82;4.72;;;;;;;15.28;98.50;101499.56;5012419;28;20086;-62
2023/08/11 02:47:30;;;;;;;6.28;3.78;;;;;;;15.30;98.25;101501.25;5012393;28;20187;-62
2023/08/11 02:49:55;;;;;;;8.57;4.55;;;;;;;15.29;98.56;101502.13;5014669;28;20478;-62
2023/08/11 02:52:20;;;;;;;5.47;4.03;;;;;;;15.27;98.22;101503.06;5018384;28;21846;-62
2023/08/11 02:54:46;;;;;;;6.95;3.92;;;;;;;15.23;98.56;101508.31;5014827;28;20103;-62
2023/08/11 02:57:11;;;;;;;6.60;3.80;;;;;;;15.23;98.79;101510.91;5020133;28;20494;-64
2023/08/11 02:59:37;;;;;;;8.10;4.38;;;;;;;15.22;98.62;101505.75;5018298;28;20421;-62
2023/08/11 03:02:02;;;;;;;7.60;3.92;;;;;;;15.21;98.67;101501.41;5014279;28;20041;-62
2023/08/11 03:04:28;;;;;;;7.05;4.88;;;;;;;15.19;98.77;101501.44;5014597;28;20030;-62
2023/08/11 03:06:53;;;;;;;8.35;4.78;;;;;;;15.16;98.97;101506.69;5015253;28;20532;-62
2023/08/11 03:09:19;;;;;;;10.40;4.57;;;;;;;15.15;98.65;101511.91;5015359;28;20617;-62
2023/08/11 03:11:44;;;;;;;8.55;4.00;;;;;;;15.13;99.04;101509.34;5014346;28;20104;-62
2023/08/11 03:14:10;;;;;;;7.38;3.58;;;;;;;15.11;98.98;101507.63;5013526;28;20041;-62
2023/08/11 03:16:35;;;;;;;7.10;3.65;;;;;;;15.09;99.50;101506.81;5012672;28;20045;-62
2023/08/11 03:19:01;;;;;;;6.13;4.20;;;;;;;15.06;99.81;101499.03;5008763;28;20486;-62
2023/08/11 03:21:26;;;;;;;5.60;4.30;;;;;;;15.05;100.00;101502.50;5015370;28;20037;-62
2023/08/11 03:23:52;;;;;;;11.52;4.53;;;;;;;15.05;99.90;101497.31;5014929;28;20025;-62
2023/08/11 03:26:17;;;;;;;9.43;4.50;;;;;;;15.04;100.00;101493.00;5018793;28;20395;-62
2023/08/11 03:28:42;;;;;;;5.95;4.38;;;;;;;15.03;100.00;101494.75;5010211;28;20645;-62
2023/08/11 03:31:08;;;;;;;5.22;3.65;;;;;;;15.02;100.00;101495.59;5012285;28;20068;-62
2023/08/11 03:33:33;;;;;;;5.15;3.65;;;;;;;15.02;100.00;101495.59;5011434;28;20053;-62
2023/08/11 03:35:59;;;;;;;7.97;4.07;;;;;;;15.02;100.00;101495.59;5012947;28;20515;-62
2023/08/11 03:38:24;;;;;;;6.95;4.07;;;;;;;15.00;100.00;101499.13;4997795;28;20049;-62
2023/08/11 03:40:49;;;;;;;7.07;4.00;;;;;;;14.97;100.00;101501.78;5014815;28;20029;-62
2023/08/11 03:43:15;;;;;;;6.75;3.85;;;;;;;14.93;100.00;101500.94;5021144;28;20045;-62
2023/08/11 03:45:40;;;;;;;5.88;3.70;;;;;;;14.92;100.00;101501.84;5017864;28;20557;-62
2023/08/11 03:48:06;;;;;;;7.80;4.10;;;;;;;14.89;100.00;101499.28;5011885;28;20033;-62
2023/08/11 03:50:31;;;;;;;10.27;4.80;;;;;;;14.86;100.00;101501.94;5019662;28;20045;-62
2023/08/11 03:52:56;;;;;;;5.85;3.67;;;;;;;14.84;100.00;101503.69;5017066;28;20068;-62
2023/08/11 03:55:22;;;;;;;10.68;4.68;;;;;;;14.84;100.00;101505.44;5010752;28;20145;-62
2023/08/11 03:57:47;;;;;;;7.60;4.75;;;;;;;14.87;100.00;101510.63;4990020;28;20108;-62
2023/08/11 04:00:16;;;;;;;9.15;4.88;;;;;;;14.87;100.00;101514.06;5011885;28;20674;-62
2023/08/11 04:02:43;;;;;;;7.05;4.18;;;;;;;14.86;100.00;101517.56;5015798;28;20041;-62
2023/08/11 04:05:10;;;;;;;9.07;4.35;;;;;;;14.87;100.00;101515.81;5016718;28;20040;-62
2023/08/11 04:07:38;;;;;;;8.23;4.05;;;;;;;14.88;100.00;101512.31;5015833;28;20038;-63
2023/08/11 04:10:05;;;;;;;8.88;4.95;;;;;;;14.89;100.00;101506.25;5007796;28;20390;-63
2023/08/11 04:12:31;;;;;;;6.28;4.60;;;;;;;14.90;100.00;101510.56;5008404;28;20083;-62
2023/08/11 04:14:56;;;;;;;8.20;5.07;;;;;;;14.91;100.00;101515.75;5012288;28;20035;-62
2023/08/11 04:17:22;;;;;;;8.95;4.88;;;;;;;14.92;100.00;101517.47;5013770;28;20025;-62
2023/08/11 04:19:48;;;;;;;6.55;4.45;;;;;;;14.95;100.00;101514.81;4997821;28;20775;-62
2023/08/11 04:22:14;;;;;;;7.75;4.93;;;;;;;14.97;99.97;101513.06;5017380;28;20152;-62
2023/08/11 04:24:39;;;;;;;8.13;3.75;;;;;;;14.99;99.94;101513.03;5017015;28;20045;-62
2023/08/11 04:27:05;;;;;;;10.57;5.07;;;;;;;14.99;100.00;101513.03;5019596;28;20037;-62
2023/08/11 04:29:30;;;;;;;9.05;5.10;;;;;;;15.02;99.46;101511.22;5021073;28;20211;-62
2023/08/11 04:31:55;;;;;;;8.25;4.78;;;;;;;15.05;99.34;101510.31;5016453;28;20111;-62
2023/08/11 04:34:21;;;;;;;8.02;4.65;;;;;;;15.07;99.15;101513.78;5017686;28;20052;-62
2023/08/11 04:36:46;;;;;;;6.70;4.35;;;;;;;15.09;99.19;101518.09;5022495;28;20040;-62
2023/08/11 04:39:12;;;;;;;10.77;5.60;;;;;;;15.13;99.20;101509.34;5013108;28;20060;-62
2023/08/11 04:41:38;;;;;;;9.88;5.75;;;;;;;15.14;98.78;101507.59;5016819;28;20989;-62
2023/08/11 04:44:07;;;;;;;7.82;4.78;;;;;;;15.17;98.37;101505.78;5014952;28;20604;-62
2023/08/11 04:46:32;;;;;;;11.75;5.50;;;;;;;15.21;98.45;101509.22;5014271;28;20141;-62
2023/08/11 04:48:58;;;;;;;9.32;5.05;;;;;;;15.23;97.67;101508.31;5016799;28;20049;-62
2023/08/11 04:51:23;;;;;;;9.02;5.15;;;;;;;15.25;97.55;101513.50;5016750;28;20398;-62
2023/08/11 04:53:49;;;;;;;8.20;4.70;;;;;;;15.32;97.88;101509.91;5018409;28;20624;-62
2023/08/11 04:56:15;;;;;;;7.78;4.80;;;;;;;15.36;97.09;101505.50;5014897;28;20029;-62
2023/08/11 04:58:40;;;;;;;8.15;5.32;;;;;;;15.42;96.71;101515.84;5016979;28;20071;-62
2023/08/11 05:01:07;;;;;;;8.88;5.95;;;;;;;15.45;96.49;101515.78;5023478;28;20038;-65
2023/08/11 05:03:33;;;;;;;9.68;5.15;;;;;;;15.49;96.92;101517.47;5016226;28;20159;-65
2023/08/11 05:05:58;;;;;;;8.95;5.38;;;;;;;15.54;96.20;101513.03;5020786;28;20048;-65
2023/08/11 05:08:23;;;;;;;10.35;4.85;;;;;;;15.59;96.21;101512.06;5018161;28;20143;-65
2023/08/11 05:10:49;;;;;;;9.05;5.60;;;;;;;15.64;96.09;101510.25;5021138;28;20037;-65
2023/08/11 05:13:14;;;;;;;8.73;5.32;;;;;;;15.70;95.95;101519.75;5026314;28;20033;-65
2023/08/11 05:15:40;;;;;;;12.10;5.45;;;;;;;15.79;95.79;101521.31;5018819;28;20048;-65
2023/08/11 05:18:05;;;;;;;10.77;4.88;;;;;;;15.85;95.33;101516.00;5019325;28;20052;-65
2023/08/11 05:20:31;;;;;;;9.77;5.10;;;;;;;15.90;95.05;101516.78;5019230;28;20064;-65
2023/08/11 05:22:56;;;;;;;10.93;5.15;;;;;;;15.96;94.85;101525.34;5001693;28;20047;-66
2023/08/11 05:25:22;;;;;;;9.52;5.43;;;;;;;16.03;94.60;101520.84;5016062;28;20033;-65
2023/08/11 05:27:47;;;;;;;9.68;6.10;;;;;;;16.09;94.34;101518.13;5021893;28;20045;-65
2023/08/11 05:30:13;;;;;;;9.25;5.10;;;;;;;16.17;93.81;101518.88;5018245;28;20033;-65
2023/08/11 05:32:38;;;;;;;10.25;4.85;;;;;;;16.21;93.40;101523.97;5015391;28;20127;-65
2023/08/11 05:35:04;;;;;;;14.55;5.18;;;;;;;16.27;93.08;101516.03;5017031;28;20102;-65
2023/08/11 05:37:30;;;;;;;10.63;4.82;;;;;;;16.34;92.55;101519.38;5002592;28;20573;-65
2023/08/11 05:39:55;;;;;;;8.88;4.80;;;;;;;16.38;92.60;101526.28;5013984;28;20038;-65
2023/08/11 05:42:20;;;;;;;8.30;4.43;;;;;;;16.44;92.82;101517.47;4989441;28;20056;-65
2023/08/11 05:44:46;;;;;;;6.15;4.15;;;;;;;16.51;92.08;101522.50;5018832;28;20072;-65
2023/08/11 05:47:12;;;;;;;9.13;4.35;;;;;;;16.58;91.80;101526.72;5010851;28;20515;-65
2023/08/11 05:49:38;;;;;;;6.38;4.30;;;;;;;16.63;91.68;101518.78;5017150;28;20034;-65
2023/08/11 05:52:04;;;;;;;6.47;4.20;;;;;;;16.68;91.77;101530.00;5016877;28;20835;-65
2023/08/11 05:54:30;;;;;;;6.05;3.45;;;;;;;16.74;91.27;101527.25;5016446;28;20359;-65
2023/08/11 05:56:55;;;;;;;5.13;3.75;;;;;;;16.84;90.31;101521.84;5019100;28;20030;-64
2023/08/11 05:59:21;;;;;;;8.07;4.10;;;;;;;16.97;89.64;101519.81;4999812;28;20498;-65
2023/08/11 06:01:47;;;;;;;7.30;4.57;;;;;;;17.06;89.34;101518.75;5016196;28;20069;-65
2023/08/11 06:04:12;;;;;;;6.35;3.45;;;;;;;17.11;89.00;101515.13;5018233;28;20064;-65
2023/08/11 06:06:38;;;;;;;8.60;3.72;;;;;;;17.21;88.00;101507.94;5019387;28;20062;-65
2023/08/11 06:09:04;;;;;;;9.57;3.72;;;;;;;17.28;87.15;101509.50;5017364;28;20160;-65
2023/08/11 06:11:30;;;;;;;7.85;3.80;;;;;;;17.37;86.98;101517.09;5015771;28;20129;-65
2023/08/11 06:13:55;;;;;;;6.72;3.45;;;;;;;17.51;86.22;101512.44;5014312;28;20042;-65
2023/08/11 06:16:20;;;;;;;8.43;4.03;;;;;;;17.60;86.12;101503.50;5013501;28;20124;-65
2023/08/11 06:18:46;;;;;;;8.85;3.28;;;;;;;17.67;85.38;101505.03;5013553;28;20713;-65
2023/08/11 06:21:11;;;;;;;8.80;3.35;;;;;;;17.75;85.30;101503.09;5011579;28;20044;-65
2023/08/11 06:23:37;;;;;;;8.10;3.85;;;;;;;17.81;84.36;101503.78;5016462;28;20120;-66
2023/08/11 06:26:02;;;;;;;6.25;3.00;;;;;;;17.97;82.48;101504.25;5019184;28;20111;-65
2023/08/11 06:28:28;;;;;;;5.03;3.42;;;;;;;18.03;82.38;101498.00;5016708;28;20182;-66
2023/08/11 06:30:54;;;;;;;6.90;3.47;;;;;;;18.09;82.34;101497.84;5016398;28;20040;-65
2023/08/11 06:33:20;;;;;;;6.47;2.83;;;;;;;18.20;81.06;101495.78;5018433;28;20056;-65
2023/08/11 06:35:45;;;;;;;9.18;3.15;;;;;;;18.35;79.46;101477.00;5016766;28;20124;-65
2023/08/11 06:38:11;;;;;;;6.28;3.22;;;;;;;18.43;79.19;101483.75;5015070;28;20425;-65
2023/08/11 06:40:38;;;;;;;4.13;2.65;;;;;;;18.49;79.33;101485.34;5011263;28;20041;-65
2023/08/11 06:43:07;;;;;;;7.78;3.35;;;;;;;18.53;79.66;101492.19;5016163;28;20390;-66
2023/08/11 06:45:32;;;;;;;9.45;3.38;;;;;;;18.66;78.47;101488.31;5013264;28;20037;-65
2023/08/11 06:47:59;;;;;;;7.15;3.63;;;;;;;18.72;77.45;101477.66;5017512;28;20040;-65
2023/08/11 06:50:24;;;;;;;8.88;3.58;;;;;;;18.84;77.57;101481.66;5013976;28;20164;-65
2023/08/11 06:52:50;;;;;;;6.40;3.40;;;;;;;18.92;77.29;101479.69;5013703;28;20037;-65
2023/08/11 06:55:16;;;;;;;5.47;3.40;;;;;;;18.98;77.09;101482.09;5009988;28;20111;-65
2023/08/11 06:57:41;;;;;;;7.05;3.35;;;;;;;19.06;77.43;101482.72;5009027;28;20756;-65
2023/08/11 07:00:07;;;;;;;6.20;2.70;;;;;;;19.09;77.36;101485.25;5007451;28;20064;-65
2023/08/11 07:02:34;;;;;;;7.03;3.63;;;;;;;19.20;76.30;101480.53;4997264;28;20083;-65
2023/08/11 07:04:59;;;;;;;5.97;3.05;;;;;;;19.35;75.41;101472.16;5013216;28;20120;-65
2023/08/11 07:07:25;;;;;;;5.47;3.20;;;;;;;19.46;74.11;101467.41;5017888;28;20417;-65
2023/08/11 07:09:50;;;;;;;8.00;3.33;;;;;;;19.56;73.33;101458.31;5012874;28;20052;-66
2023/08/11 07:12:16;;;;;;;7.38;2.92;;;;;;;19.63;74.03;101472.06;5011788;28;20037;-65
2023/08/11 07:14:42;;;;;;;6.95;3.25;;;;;;;19.76;72.92;101462.03;5012211;28;20029;-65
2023/08/11 07:17:08;;;;;;;7.00;3.47;;;;;;;19.82;72.78;101461.84;5009777;28;20076;-65
2023/08/11 07:19:33;;;;;;;9.02;3.50;;;;;;;19.90;72.44;101463.28;5016048;28;20067;-65
2023/08/11 07:21:59;;;;;;;7.38;3.33;;;;;;;19.98;72.76;101468.22;5009449;28;20140;-65
2023/08/11 07:24:24;;;;;;;5.20;3.20;;;;;;;20.02;72.91;101473.34;5009110;28;20107;-65
2023/08/11 07:26:49;;;;;;;8.27;3.00;;;;;;;20.12;71.61;101463.38;5017824;28;20025;-65
2023/08/11 07:29:15;;;;;;;7.18;3.22;;;;;;;20.16;72.12;101468.44;5022347;28;20113;-65
2023/08/11 07:31:41;;;;;;;5.95;2.55;;;;;;;20.34;71.59;101459.03;5014571;28;20064;-65
2023/08/11 07:34:06;;;;;;;5.28;2.55;;;;;;;20.42;71.51;101459.56;5018186;28;20041;-66
2023/08/11 07:36:32;;;;;;;6.85;3.17;;;;;;;20.62;70.19;101446.56;5019541;28;20037;-65
2023/08/11 07:38:57;;;;;;;5.65;3.47;;;;;;;20.63;71.21;101461.38;5016378;28;20095;-65
2023/08/11 07:41:22;;;;;;;5.60;2.97;;;;;;;20.65;71.91;101466.59;5015587;28;20037;-66
2023/08/11 07:43:48;;;;;;;7.13;3.70;;;;;;;20.87;69.03;101428.06;5015187;28;20042;-65
2023/08/11 07:46:13;;;;;;;7.63;3.15;;;;;;;20.93;68.92;101429.63;5015615;28;21092;-65
2023/08/11 07:48:38;;;;;;;7.88;3.10;;;;;;;21.04;68.95;101435.28;5015825;28;20510;-66
2023/08/11 07:51:04;;;;;;;6.45;3.40;;;;;;;21.11;68.87;101440.22;5012648;28;20053;-65
2023/08/11 07:53:31;;;;;;;8.43;3.38;;;;;;;21.12;69.76;101452.44;5014169;28;20029;-66
2023/08/11 07:55:57;;;;;;;4.40;2.85;;;;;;;21.34;67.18;101420.88;5020183;28;20104;-66
2023/08/11 07:58:22;;;;;;;5.00;2.90;;;;;;;21.39;67.80;101431.19;5019406;28;20483;-66
2023/08/11 08:00:48;;;;;;;6.18;3.00;;;;;;;21.43;67.34;101427.50;5022197;28;20041;-67
2023/08/11 08:03:13;;;;;;;7.53;3.10;;;;;;;21.54;67.06;101415.59;5020866;28;20102;-66
2023/08/11 08:05:39;;;;;;;7.40;3.17;;;;;;;21.58;67.74;101434.78;5018256;28;20514;-62
2023/08/11 08:08:05;;;;;;;8.20;3.10;;;;;;;21.92;66.17;101408.69;5017055;28;20045;-62
2023/08/11 08:10:30;;;;;;;8.60;2.83;;;;;;;21.97;65.30;101400.59;5022015;28;20560;-61
2023/08/11 08:12:55;;;;;;;7.05;3.13;;;;;;;22.17;65.49;101411.06;5020900;28;20045;-62
2023/08/11 08:15:21;;;;;;;4.03;2.90;;;;;;;22.38;64.87;101404.84;5012344;28;20071;-62
2023/08/11 08:17:46;;;;;;;7.65;2.90;;;;;;;22.59;64.01;101393.25;5009510;28;20032;-62
2023/08/11 08:20:16;;;;;;;6.28;2.90;;;;;;;22.64;63.14;101387.78;5014946;28;20053;-62
2023/08/11 08:22:42;;;;;;;6.68;3.40;;;;;;;22.77;63.37;101392.34;5010743;28;20933;-62
2023/08/11 08:25:08;;;;;;;9.40;3.50;;;;;;;22.93;63.35;101397.75;5016134;28;20049;-62
2023/08/11 08:27:38;;;;;;;6.93;3.17;;;;;;;23.00;63.31;101400.94;5018610;28;20699;-62
2023/08/11 08:30:05;;;;;;;8.10;3.22;;;;;;;23.15;62.96;101395.75;5017137;28;20517;-62
2023/08/11 08:32:30;;;;;;;5.30;3.03;;;;;;;23.28;62.76;101396.84;5017323;28;20060;-62
2023/08/11 08:34:56;;;;;;;7.63;3.10;;;;;;;23.41;61.74;101389.19;5018304;28;20494;-62
2023/08/11 08:37:24;;;;;;;5.68;2.78;;;;;;;23.55;62.77;101412.19;5014323;28;20099;-62
2023/08/11 08:39:50;;;;;;;5.13;2.90;;;;;;;23.65;61.12;101380.00;5012949;28;20790;-62
2023/08/11 08:42:16;;;;;;;6.30;2.83;;;;;;;23.74;60.16;101368.94;5016304;28;20037;-62
2023/08/11 08:44:42;;;;;;;5.15;2.38;;;;;;;23.84;61.56;101393.91;5015784;28;20023;-62
2023/08/11 08:47:09;;;;;;;5.45;3.20;;;;;;;23.97;60.46;101378.28;5017116;28;20041;-62
2023/08/11 08:49:38;;;;;;;5.53;2.90;;;;;;;24.09;60.85;101388.19;5023657;28;20437;-62
2023/08/11 08:52:07;;;;;;;5.80;2.63;;;;;;;24.26;59.26;101364.34;5023059;28;20797;-62
2023/08/11 08:54:33;;;;;;;8.88;2.92;;;;;;;24.33;59.36;101360.44;5008116;28;20041;-62
2023/08/11 08:57:01;;;;;;;6.88;3.03;;;;;;;24.46;60.67;101381.75;5017243;28;20034;-62
2023/08/11 08:59:27;;;;;;;8.50;3.00;;;;;;;24.61;58.04;101330.63;5016999;28;20033;-62
2023/08/11 09:01:53;;;;;;;5.50;2.97;;;;;;;24.67;58.34;101351.41;5007762;28;20041;-62
2023/08/11 09:04:20;;;;;;;4.82;3.08;;;;;;;24.87;59.08;101352.97;5016741;28;20026;-62
2023/08/11 09:06:46;;;;;;;5.35;2.92;;;;;;;25.12;57.33;101334.69;5015325;28;20411;-62
2023/08/11 09:09:12;;;;;;;7.88;2.70;;;;;;;25.28;58.71;101353.16;5018375;28;20034;-62
2023/08/11 09:11:38;;;;;;;9.07;2.70;;;;;;;25.36;56.32;101322.63;5016731;28;20041;-62
2023/08/11 09:14:06;;;;;;;5.50;2.88;;;;;;;25.43;56.69;101336.38;5016309;28;20053;-63
2023/08/11 09:16:33;;;;;;;6.60;3.10;;;;;;;25.46;55.92;101322.97;5014745;28;20033;-62
2023/08/11 09:18:59;;;;;;;7.47;3.03;;;;;;;25.53;56.39;101338.38;5014893;28;20116;-62
2023/08/11 09:21:24;;;;;;;4.18;2.60;;;;;;;25.59;55.15;101310.66;5014764;28;20095;-62
2023/08/11 09:23:52;;;;;;;7.50;2.95;;;;;;;25.57;55.89;101334.59;5016893;28;20026;-62
2023/08/11 09:26:21;;;;;;;6.68;2.67;;;;;;;;;;5017222;28;20040;-63
2023/08/11 09:28:47;;;;;;;4.25;2.60;;;;;;;25.58;54.09;101293.09;5014778;28;20043;-61
2023/08/11 09:31:12;;;;;;;3.83;2.67;;;;;;;25.74;53.83;101301.75;5014129;28;20513;-62
2023/08/11 09:33:38;;;;;;;4.90;2.55;;;;;;;25.70;54.40;101312.66;5016521;28;20830;-62
2023/08/11 09:36:04;;;;;;;3.20;2.30;;;;;;;25.61;53.71;101299.06;5015555;28;20041;-62
2023/08/11 09:38:30;;;;;;;3.88;2.70;;;;;;;25.69;52.83;101289.75;5014804;28;20029;-61
2023/08/11 09:41:04;;;;;;;5.13;2.33;;;;;;;26.00;50.80;101260.41;5017953;28;20052;-62
2023/08/11 09:43:30;;;;;;;4.68;2.72;;;;;;;26.06;52.54;101302.38;5015126;28;20036;-63
2023/08/11 09:45:59;;;;;;;6.00;2.97;;;;;;;26.23;51.19;101273.03;5011882;28;20046;-62
2023/08/11 09:48:25;;;;;;;4.15;2.60;;;;;;;26.45;49.01;101230.06;5013648;28;20029;-62
2023/08/11 09:50:51;;;;;;;3.70;2.80;;;;;;;26.38;50.01;101265.88;5016284;28;20033;-62
2023/08/11 09:53:18;;;;;;;3.85;2.45;;;;;;;26.59;49.41;101254.69;5010727;28;20042;-62
2023/08/11 09:55:45;;;;;;;6.15;2.70;;;;;;;26.65;49.56;101258.72;5014238;28;20072;-62
2023/08/11 09:58:13;;;;;;;4.38;2.60;;;;;;;26.62;50.29;101269.53;5013709;28;20037;-62
2023/08/11 10:00:39;;;;;;;4.38;2.30;;;;;;;26.89;50.00;101280.13;5016320;28;20033;-62
2023/08/11 10:03:09;;;;;;;4.43;2.92;;;;;;;26.90;47.27;101218.13;5011329;28;20038;-62
2023/08/11 10:05:41;;;;;;;5.05;2.35;;;;;;;27.13;48.30;101241.28;4993290;28;20669;-62
2023/08/11 10:08:11;;;;;;;3.63;2.35;;;;;;;27.33;48.30;101230.13;5006288;28;20050;-62
2023/08/11 10:10:38;;;;;;;4.57;2.47;;;;;;;27.39;46.88;101197.84;5014996;28;20068;-62
2023/08/11 10:13:26;;;;;;;3.92;2.67;;;;;;;27.47;47.14;101208.78;5017194;28;20541;-62
2023/08/11 10:15:54;;;;;;;5.30;3.00;;;;;;;27.51;46.73;101212.06;5012841;28;20045;-62
2023/08/11 10:18:20;;;;;;;4.88;2.47;;;;;;;27.65;47.51;101210.13;5012436;28;20442;-62
2023/08/11 10:20:49;;;;;;;6.65;2.40;;;;;;;27.65;48.06;101220.75;5010652;28;20036;-61
2023/08/11 10:23:17;;;;;;;7.88;3.35;;;;;;;27.80;45.32;101166.50;5017540;28;20283;-62
2023/08/11 10:25:43;;;;;;;5.60;2.65;;;;;;;27.79;46.33;101183.38;5013663;28;20051;-62
2023/08/11 10:28:11;;;;;;;5.07;2.15;;;;;;;27.75;47.22;101208.50;5017477;28;20037;-62
2023/08/11 10:30:36;;;;;;;3.63;2.47;;;;;;;27.86;45.77;101173.16;5017739;28;20081;-62
2023/08/11 10:33:03;;;;;;;4.40;2.63;;;;;;;27.85;47.18;101191.88;5017802;28;20592;-62
2023/08/11 10:35:51;;;;;;;3.92;2.20;;;;;;;27.85;47.00;101198.03;5017066;28;22114;-62
2023/08/11 10:38:26;;;;;;;4.05;2.38;;;;;;;27.90;46.07;101177.31;5014440;28;20513;-62
2023/08/11 10:41:15;;;;;;;5.00;2.45;;;;;;;27.97;43.41;101129.84;5017171;28;20068;-63
2023/08/11 10:43:47;;;;;;;5.10;2.50;;;;;;;28.04;46.52;101186.88;5008873;28;20088;-62
2023/08/11 10:46:16;;;;;;;3.45;2.20;;;;;;;28.18;44.41;101150.38;5014210;28;20132;-62
2023/08/11 10:48:42;;;;;;;5.40;3.03;;;;;;;28.18;45.13;101162.81;5012507;28;20048;-62
2023/08/11 10:51:23;;;;;;;5.45;2.47;;;;;;;28.32;45.82;101166.13;5015534;28;20037;-63
2023/08/11 10:53:48;;;;;;;4.55;2.58;;;;;;;28.41;45.69;101177.91;5013578;28;20036;-63
2023/08/11 10:56:13;;;;;;;4.13;2.40;;;;;;;28.40;44.96;101162.91;5016317;28;20029;-62
2023/08/11 10:58:39;;;;;;;3.28;2.65;;;;;;;28.44;45.94;101169.66;5014961;28;20047;-62
2023/08/11 11:01:04;;;;;;;5.03;2.63;;;;;;;28.55;46.57;101193.66;5016791;28;20124;-62
2023/08/11 11:03:30;;;;;;;3.45;2.20;;;;;;;28.69;45.71;101179.28;5015233;28;20954;-62
2023/08/11 11:05:57;;;;;;;5.78;2.85;;;;;;;28.80;45.71;101176.66;5017636;28;20056;-62
2023/08/11 11:08:23;;;;;;;4.90;2.53;;;;;;;28.87;45.38;101168.09;5009937;28;20724;-62
2023/08/11 11:10:48;;;;;;;4.03;2.53;;;;;;;29.01;46.60;101201.59;5011639;28;20052;-62
2023/08/11 11:13:14;;;;;;;4.70;2.67;;;;;;;29.14;44.21;101156.22;5016538;28;20530;-62
2023/08/11 11:15:40;;;;;;;4.75;2.40;;;;;;;29.21;42.96;101133.47;5018483;28;20168;-62
2023/08/11 11:18:05;;;;;;;3.38;2.55;;;;;;;29.23;43.56;101160.81;5021263;28;20072;-62
2023/08/11 11:20:33;;;;;;;5.85;2.92;;;;;;;29.28;43.02;101142.66;5012476;28;20087;-62